createdAt,value
2018-11-26T00:01:47.573Z,16.90
2018-11-26T00:04:16.009Z,22.57
2018-11-26T00:06:44.437Z,18.87
2018-11-26T00:09:12.865Z,18.20
2018-11-26T00:11:41.290Z,17.25
2018-11-26T00:14:09.713Z,19.63
2018-11-26T00:16:38.148Z,15.43
2018-11-26T00:19:06.666Z,16.35
2018-11-26T00:21:35.196Z,18.73
2018-11-26T00:24:03.634Z,13.95
2018-11-26T00:26:32.121Z,25.00
2018-11-26T00:29:00.533Z,15.88
2018-11-26T00:31:28.953Z,18.93
2018-11-26T00:33:57.401Z,19.77
2018-11-26T00:36:25.828Z,20.32
2018-11-26T00:38:54.240Z,23.23
2018-11-26T00:41:22.674Z,19.53
2018-11-26T00:43:51.187Z,17.12
2018-11-26T00:46:20.735Z,26.70
2018-11-26T00:48:48.073Z,21.97
2018-11-26T00:51:16.496Z,23.63
2018-11-26T00:53:44.893Z,22.73
2018-11-26T00:56:13.288Z,27.30
2018-11-26T00:58:41.709Z,22.23
2018-11-26T01:01:10.137Z,15.77
2018-11-26T01:03:38.577Z,20.57
2018-11-26T01:06:07.037Z,18.27
2018-11-26T01:08:35.489Z,18.00
2018-11-26T01:11:03.953Z,18.20
2018-11-26T01:13:32.376Z,18.27
2018-11-26T01:16:00.771Z,17.80
2018-11-26T01:18:29.219Z,18.48
2018-11-26T01:20:57.632Z,19.05
2018-11-26T01:23:26.053Z,24.20
2018-11-26T01:25:54.473Z,25.03
2018-11-26T01:28:22.885Z,33.47
2018-11-26T01:30:51.291Z,30.50
2018-11-26T01:33:19.717Z,28.23
2018-11-26T01:35:48.107Z,37.03
2018-11-26T01:38:16.532Z,32.40
2018-11-26T01:40:51.446Z,26.90
2018-11-26T01:43:20.677Z,24.95
2018-11-26T01:45:49.082Z,25.10
2018-11-26T01:48:17.508Z,23.90
2018-11-26T01:50:45.919Z,36.33
2018-11-26T01:53:14.349Z,30.27
2018-11-26T01:55:42.755Z,28.32
2018-11-26T01:58:11.184Z,30.57
2018-11-26T02:00:39.606Z,29.72
2018-11-26T02:03:08.052Z,38.67
2018-11-26T02:05:36.721Z,29.42
2018-11-26T02:08:05.717Z,37.85
2018-11-26T02:10:34.145Z,44.58
2018-11-26T02:13:02.553Z,45.70
2018-11-26T02:15:38.014Z,54.70
2018-11-26T02:18:07.214Z,57.55
2018-11-26T02:20:35.637Z,47.70
2018-11-26T02:23:04.041Z,42.37
2018-11-26T02:25:32.485Z,43.23
2018-11-26T02:28:00.883Z,56.18
2018-11-26T02:30:29.300Z,35.07
2018-11-26T02:32:57.705Z,39.13
2018-11-26T02:35:26.116Z,29.23
2018-11-26T02:37:54.703Z,28.20
2018-11-26T02:40:28.336Z,21.53
2018-11-26T02:42:56.763Z,18.30
2018-11-26T02:45:25.188Z,32.50
2018-11-26T02:47:53.594Z,19.20
2018-11-26T02:50:22.024Z,18.62
2018-11-26T02:52:50.415Z,14.97
2018-11-26T02:55:18.865Z,22.87
2018-11-26T02:57:47.308Z,26.70
2018-11-26T03:00:15.758Z,22.63
2018-11-26T03:02:44.213Z,22.90
2018-11-26T03:05:13.829Z,23.95
2018-11-26T03:07:42.249Z,35.50
2018-11-26T03:10:10.973Z,34.50
2018-11-26T03:12:39.696Z,33.18
2018-11-26T03:15:10.073Z,35.05
2018-11-26T03:17:39.168Z,33.13
2018-11-26T03:20:08.873Z,31.20
2018-11-26T03:22:37.301Z,30.50
2018-11-26T03:25:07.295Z,45.23
2018-11-26T03:27:35.737Z,51.95
2018-11-26T03:30:06.223Z,41.42
2018-11-26T03:32:34.633Z,30.90
2018-11-26T03:35:03.057Z,31.17
2018-11-26T03:37:31.477Z,30.40
2018-11-26T03:39:59.872Z,29.92
2018-11-26T03:42:28.305Z,35.75
2018-11-26T03:44:56.744Z,37.83
2018-11-26T03:47:25.176Z,44.08
2018-11-26T03:49:53.570Z,39.15
2018-11-26T03:52:21.999Z,47.10
2018-11-26T03:54:50.433Z,40.90
2018-11-26T03:57:18.875Z,55.20
2018-11-26T03:59:47.279Z,40.50
2018-11-26T04:02:15.688Z,41.47
2018-11-26T04:04:44.091Z,51.28
2018-11-26T04:07:12.517Z,39.60
2018-11-26T04:09:40.961Z,47.30
2018-11-26T04:12:09.409Z,38.17
2018-11-26T04:14:37.824Z,40.35
2018-11-26T04:17:06.648Z,41.02
2018-11-26T04:19:35.072Z,34.97
2018-11-26T04:22:03.491Z,33.28
2018-11-26T04:24:31.917Z,47.77
2018-11-26T04:27:00.309Z,34.57
2018-11-26T04:29:28.733Z,32.00
2018-11-26T04:31:57.133Z,31.40
2018-11-26T04:34:25.549Z,30.10
2018-11-26T04:36:53.945Z,34.93
2018-11-26T04:39:22.365Z,36.47
2018-11-26T04:41:50.754Z,25.57
2018-11-26T04:44:19.193Z,27.17
2018-11-26T04:46:47.634Z,36.50
2018-11-26T04:49:16.069Z,31.33
2018-11-26T04:51:44.512Z,31.77
2018-11-26T04:54:12.997Z,30.00
2018-11-26T04:56:41.433Z,28.70
2018-11-26T04:59:09.865Z,31.10
2018-11-26T05:01:38.278Z,27.93
2018-11-26T05:04:07.022Z,25.50
2018-11-26T05:06:35.413Z,25.83
2018-11-26T05:09:04.528Z,23.33
2018-11-26T05:11:32.913Z,32.10
2018-11-26T05:14:01.339Z,27.90
2018-11-26T05:16:29.725Z,30.33
2018-11-26T05:18:58.112Z,25.93
2018-11-26T05:21:26.517Z,24.50
2018-11-26T05:23:54.920Z,24.37
2018-11-26T05:26:23.317Z,24.83
2018-11-26T05:28:51.695Z,23.80
2018-11-26T05:31:20.105Z,30.50
2018-11-26T05:33:48.494Z,24.97
2018-11-26T05:36:16.944Z,23.93
2018-11-26T05:38:45.379Z,24.53
2018-11-26T05:41:13.785Z,20.97
2018-11-26T05:43:42.216Z,26.67
2018-11-26T05:46:10.620Z,21.87
2018-11-26T05:48:39.009Z,26.43
2018-11-26T05:51:07.452Z,27.20
2018-11-26T05:53:35.829Z,23.37
2018-11-26T05:56:04.286Z,22.27
2018-11-26T05:58:32.725Z,30.17
2018-11-26T06:01:01.133Z,23.57
2018-11-26T06:03:29.559Z,23.40
2018-11-26T06:05:57.980Z,20.20
2018-11-26T06:08:26.363Z,24.00
2018-11-26T06:10:54.810Z,21.77
2018-11-26T06:13:23.232Z,20.10
2018-11-26T06:15:51.664Z,26.67
2018-11-26T06:18:20.082Z,23.37
2018-11-26T06:20:48.497Z,23.13
2018-11-26T06:23:16.880Z,23.23
2018-11-26T06:25:45.299Z,24.63
2018-11-26T06:28:13.688Z,20.93
2018-11-26T06:30:42.071Z,22.17
2018-11-26T06:33:10.481Z,19.43
2018-11-26T06:35:38.865Z,24.60
2018-11-26T06:38:08.339Z,27.70
2018-11-26T06:40:36.796Z,23.77
2018-11-26T06:43:05.795Z,22.90
2018-11-26T06:45:34.521Z,26.93
2018-11-26T06:48:03.073Z,21.23
2018-11-26T06:50:31.474Z,22.50
2018-11-26T06:52:59.876Z,24.50
2018-11-26T06:55:28.268Z,27.30
2018-11-26T06:57:56.672Z,22.57
2018-11-26T07:00:25.160Z,28.63
2018-11-26T07:02:53.620Z,34.00
2018-11-26T07:05:22.831Z,34.67
2018-11-26T07:07:51.298Z,28.53
2018-11-26T07:10:20.664Z,31.40
2018-11-26T07:12:49.092Z,32.57
2018-11-26T07:15:19.011Z,25.33
2018-11-26T07:17:47.436Z,31.87
2018-11-26T07:20:16.785Z,29.30
2018-11-26T07:22:45.233Z,27.57
2018-11-26T07:25:14.776Z,23.50
2018-11-26T07:27:44.223Z,23.53
2018-11-26T07:30:28.905Z,24.80
2018-11-26T07:32:57.337Z,29.00
2018-11-26T07:35:25.736Z,24.73
2018-11-26T07:37:54.125Z,22.73
2018-11-26T07:40:23.418Z,28.23
2018-11-26T07:42:58.460Z,31.20
2018-11-26T07:45:26.944Z,27.43
2018-11-26T07:47:55.407Z,24.57
2018-11-26T07:50:23.827Z,22.00
2018-11-26T07:52:52.232Z,26.87
2018-11-26T07:55:21.419Z,27.43
2018-11-26T07:57:50.133Z,21.23
2018-11-26T08:00:19.873Z,25.87
2018-11-26T08:02:48.658Z,26.10
2018-11-26T08:05:18.185Z,24.03
2018-11-26T08:07:46.615Z,23.17
2018-11-26T08:10:21.916Z,23.73
2018-11-26T08:12:51.344Z,24.20
2018-11-26T08:15:20.848Z,25.10
2018-11-26T08:17:49.272Z,24.43
2018-11-26T08:20:17.735Z,21.47
2018-11-26T08:22:46.181Z,22.93
2018-11-26T08:25:15.897Z,26.13
2018-11-26T08:27:45.113Z,21.27
2018-11-26T08:30:17.473Z,21.20
2018-11-26T08:32:47.059Z,23.70
2018-11-26T08:35:16.249Z,24.90
2018-11-26T08:37:50.076Z,19.40
2018-11-26T08:40:25.933Z,17.90
2018-11-26T08:45:06.554Z,24.00
2018-11-26T08:47:40.393Z,19.07
2018-11-26T08:50:09.622Z,16.93
2018-11-26T08:52:38.148Z,23.87
2018-11-26T08:55:08.097Z,19.90
2018-11-26T08:57:36.524Z,22.70
2018-11-26T09:00:05.800Z,25.17
2018-11-26T09:02:38.425Z,26.73
2018-11-26T09:05:11.825Z,19.43
2018-11-26T09:07:40.244Z,25.53
2018-11-26T09:10:08.820Z,25.10
2018-11-26T09:12:37.234Z,25.27
2018-11-26T09:15:06.609Z,21.97
2018-11-26T09:17:35.014Z,20.20
2018-11-26T09:20:03.488Z,26.90
2018-11-26T09:22:31.944Z,23.97
2018-11-26T09:25:00.316Z,19.00
2018-11-26T09:27:28.718Z,21.33
2018-11-26T09:29:57.096Z,25.63
2018-11-26T09:32:25.509Z,21.87
2018-11-26T09:34:53.908Z,22.87
2018-11-26T09:37:22.320Z,20.87
2018-11-26T09:39:50.702Z,21.43
2018-11-26T09:42:19.083Z,24.23
2018-11-26T09:44:47.501Z,28.40
2018-11-26T09:47:15.897Z,24.97
2018-11-26T09:49:44.309Z,20.57
2018-11-26T09:52:12.748Z,24.50
2018-11-26T09:54:41.179Z,27.13
2018-11-26T09:57:09.585Z,22.50
2018-11-26T09:59:38.001Z,22.23
2018-11-26T10:02:07.562Z,24.70
2018-11-26T10:04:34.894Z,24.43
2018-11-26T10:07:03.280Z,27.00
2018-11-26T10:09:31.685Z,24.73
2018-11-26T10:12:00.075Z,29.30
2018-11-26T10:14:28.484Z,28.53
2018-11-26T10:16:56.873Z,21.93
2018-11-26T10:19:25.320Z,26.83
2018-11-26T10:21:53.712Z,21.83
2018-11-26T10:24:22.125Z,24.80
2018-11-26T10:26:50.517Z,21.80
2018-11-26T10:29:18.969Z,27.10
2018-11-26T10:31:47.349Z,25.67
2018-11-26T10:34:15.769Z,27.37
2018-11-26T10:36:44.141Z,27.07
2018-11-26T10:39:12.533Z,23.13
2018-11-26T10:41:40.951Z,31.63
2018-11-26T10:44:09.356Z,27.83
2018-11-26T10:46:37.758Z,25.80
2018-11-26T10:49:06.161Z,25.93
2018-11-26T10:51:34.805Z,28.03
2018-11-26T10:54:04.128Z,26.60
2018-11-26T10:56:32.577Z,25.20
2018-11-26T10:59:00.960Z,24.23
2018-11-26T11:01:34.675Z,33.30
2018-11-26T11:04:03.241Z,26.77
2018-11-26T11:06:31.704Z,28.93
2018-11-26T11:09:01.132Z,23.27
2018-11-26T11:11:29.589Z,30.33
2018-11-26T11:13:57.972Z,24.97
2018-11-26T11:16:26.448Z,29.77
2018-11-26T11:18:54.913Z,24.60
2018-11-26T11:21:23.321Z,27.57
2018-11-26T11:23:51.724Z,29.10
2018-11-26T11:26:20.149Z,35.60
2018-11-26T11:28:48.547Z,31.13
2018-11-26T11:31:16.965Z,26.43
2018-11-26T11:33:45.367Z,32.47
2018-11-26T11:36:13.778Z,31.27
2018-11-26T11:38:42.178Z,27.60
2018-11-26T11:41:10.622Z,26.83
2018-11-26T11:43:39.023Z,25.50
2018-11-26T11:46:07.487Z,30.27
2018-11-26T11:48:35.890Z,29.13
2018-11-26T11:51:04.372Z,28.23
2018-11-26T11:53:32.778Z,24.70
2018-11-26T11:56:01.221Z,36.03
2018-11-26T11:58:29.658Z,26.90
2018-11-26T12:00:58.106Z,24.07
2018-11-26T12:03:26.498Z,26.83
2018-11-26T12:05:54.913Z,28.37
2018-11-26T12:08:23.330Z,26.00
2018-11-26T12:10:51.766Z,27.80
2018-11-26T12:13:20.166Z,26.10
2018-11-26T12:15:51.359Z,25.90
2018-11-26T12:18:19.778Z,26.70
2018-11-26T12:20:48.194Z,27.37
2018-11-26T12:23:16.604Z,31.43
2018-11-26T12:25:45.023Z,27.70
2018-11-26T12:28:13.486Z,26.77
2018-11-26T12:30:44.682Z,22.93
2018-11-26T12:33:13.105Z,30.67
2018-11-26T12:35:41.546Z,25.47
2018-11-26T12:38:09.954Z,30.53
2018-11-26T12:40:38.360Z,25.57
2018-11-26T12:43:07.220Z,24.90
2018-11-26T12:45:35.846Z,21.57
2018-11-26T12:48:04.331Z,24.60
2018-11-26T12:50:32.730Z,25.80
2018-11-26T12:53:01.210Z,30.83
2018-11-26T12:55:29.649Z,26.53
2018-11-26T12:57:58.587Z,27.30
2018-11-26T13:00:28.018Z,29.60
2018-11-26T13:03:00.869Z,26.30
2018-11-26T13:05:29.300Z,26.00
2018-11-26T13:07:57.721Z,25.37
2018-11-26T13:10:26.118Z,23.50
2018-11-26T13:12:54.538Z,25.07
2018-11-26T13:15:25.243Z,29.83
2018-11-26T13:17:53.670Z,27.50
2018-11-26T13:20:25.758Z,25.70
2018-11-26T13:22:54.634Z,28.57
2018-11-26T13:25:24.183Z,27.37
2018-11-26T13:27:53.714Z,27.90
2018-11-26T13:30:24.223Z,22.03
2018-11-26T13:32:54.050Z,25.13
2018-11-26T13:35:22.481Z,21.67
2018-11-26T13:37:50.898Z,24.30
2018-11-26T13:40:19.857Z,25.63
2018-11-26T13:42:48.363Z,21.77
2018-11-26T13:45:34.574Z,23.20
2018-11-26T13:48:03.687Z,25.43
2018-11-26T13:50:34.693Z,23.40
2018-11-26T13:53:03.146Z,28.23
2018-11-26T13:55:31.558Z,22.50
2018-11-26T13:57:59.935Z,22.23
2018-11-26T14:00:28.378Z,25.63
2018-11-26T14:02:56.777Z,23.53
2018-11-26T14:05:25.214Z,22.60
2018-11-26T14:07:53.609Z,25.17
2018-11-26T14:10:24.050Z,25.93
2018-11-26T14:13:23.401Z,26.33
2018-11-26T14:15:51.857Z,28.53
2018-11-26T14:18:20.414Z,23.43
2018-11-26T14:20:48.814Z,23.63
2018-11-26T14:23:17.219Z,22.63
2018-11-26T14:25:45.657Z,29.87
2018-11-26T14:28:14.058Z,22.03
2018-11-26T14:30:42.498Z,25.47
2018-11-26T14:33:11.301Z,26.10
2018-11-26T14:35:39.797Z,24.43
2018-11-26T14:38:09.151Z,23.63
2018-11-26T14:40:39.298Z,21.10
2018-11-26T14:43:07.721Z,22.93
2018-11-26T14:45:36.137Z,24.03
2018-11-26T14:48:04.747Z,26.27
2018-11-26T14:50:33.163Z,23.73
2018-11-26T14:53:04.307Z,19.63
2018-11-26T14:55:34.324Z,20.70
2018-11-26T14:58:02.724Z,21.27
2018-11-26T15:00:31.134Z,21.07
2018-11-26T15:02:59.530Z,22.67
2018-11-26T15:05:27.957Z,20.70
2018-11-26T15:07:56.355Z,21.80
2018-11-26T15:10:25.466Z,18.33
2018-11-26T15:12:53.858Z,21.20
2018-11-26T15:15:24.045Z,21.93
2018-11-26T15:17:52.483Z,19.70
2018-11-26T15:20:22.239Z,17.23
2018-11-26T15:22:51.306Z,19.20
2018-11-26T15:25:21.804Z,21.60
2018-11-26T15:27:51.018Z,19.80
2018-11-26T15:30:20.467Z,20.07
2018-11-26T15:32:49.015Z,15.57
2018-11-26T15:35:18.513Z,18.17
2018-11-26T15:37:46.985Z,21.93
2018-11-26T15:40:16.465Z,19.43
2018-11-26T15:42:44.898Z,23.17
2018-11-26T15:45:16.481Z,18.73
2018-11-26T15:47:45.006Z,18.60
2018-11-26T15:50:13.397Z,18.50
2018-11-26T15:52:41.846Z,17.80
2018-11-26T15:55:11.789Z,21.70
2018-11-26T15:57:40.230Z,16.27
2018-11-26T16:00:13.943Z,19.10
2018-11-26T16:02:42.377Z,22.93
2018-11-26T16:05:12.128Z,23.60
2018-11-26T16:07:41.041Z,18.63
2018-11-26T16:10:10.986Z,16.37
2018-11-26T16:12:39.566Z,19.30
2018-11-26T16:15:10.725Z,23.30
2018-11-26T16:17:39.152Z,18.23
2018-11-26T16:20:11.235Z,15.87
2018-11-26T16:22:39.686Z,24.03
2018-11-26T16:25:14.538Z,21.97
2018-11-26T16:27:42.990Z,22.70
2018-11-26T16:30:17.256Z,18.30
2018-11-26T16:32:47.046Z,18.87
2018-11-26T16:35:20.774Z,19.43
2018-11-26T16:37:49.262Z,19.87
2018-11-26T16:40:18.059Z,18.17
2018-11-26T16:42:46.488Z,19.93
2018-11-26T16:45:20.658Z,18.90
2018-11-26T16:47:50.333Z,21.10
2018-11-26T16:50:19.970Z,19.70
2018-11-26T16:52:48.414Z,24.20
2018-11-26T16:55:17.378Z,23.20
2018-11-26T16:57:45.954Z,22.77
2018-11-26T17:00:30.324Z,23.83
2018-11-26T17:03:00.702Z,19.20
2018-11-26T17:05:45.497Z,19.30
2018-11-26T17:08:14.885Z,19.53
2018-11-26T17:10:43.489Z,18.90
2018-11-26T17:13:14.379Z,20.37
2018-11-26T17:15:42.874Z,17.00
2018-11-26T17:18:11.320Z,19.50
2018-11-26T17:20:39.714Z,18.63
2018-11-26T17:23:08.361Z,21.30
2018-11-26T17:25:36.799Z,21.70
2018-11-26T17:28:05.570Z,16.77
2018-11-26T17:30:33.989Z,18.60
2018-11-26T17:33:04.387Z,19.67
2018-11-26T17:35:32.998Z,18.10
2018-11-26T17:38:01.402Z,18.93
2018-11-26T17:40:29.894Z,18.97
2018-11-26T17:42:58.312Z,17.40
2018-11-26T17:45:26.965Z,19.60
2018-11-26T17:47:59.895Z,19.50
2018-11-26T17:50:44.846Z,16.70
2018-11-26T17:53:17.526Z,21.63
2018-11-26T17:55:54.022Z,20.10
2018-11-26T17:58:23.698Z,19.73
2018-11-26T18:00:57.618Z,16.97
2018-11-26T18:03:26.062Z,22.17
2018-11-26T18:05:54.470Z,17.10
2018-11-26T18:08:22.859Z,19.20
2018-11-26T18:10:51.430Z,19.93
2018-11-26T18:13:19.828Z,20.97
2018-11-26T18:15:48.250Z,18.83
2018-11-26T18:18:17.897Z,19.33
2018-11-26T18:20:46.910Z,24.27
2018-11-26T18:23:15.375Z,18.80
2018-11-26T18:25:44.089Z,19.03
2018-11-26T18:28:15.714Z,19.83
2018-11-26T18:30:46.566Z,20.90
2018-11-26T18:33:14.977Z,17.00
2018-11-26T18:35:43.861Z,20.97
2018-11-26T18:38:12.355Z,21.43
2018-11-26T18:40:42.194Z,20.87
2018-11-26T18:43:10.622Z,17.60
2018-11-26T18:45:39.950Z,21.30
2018-11-26T18:48:09.482Z,15.80
2018-11-26T18:50:37.986Z,18.53
2018-11-26T18:53:07.541Z,18.30
2018-11-26T18:55:37.177Z,19.03
2018-11-26T18:58:05.098Z,17.67
2018-11-26T19:00:45.242Z,15.33
2018-11-26T19:03:17.994Z,16.70
2018-11-26T19:05:47.081Z,20.57
2018-11-26T19:08:15.482Z,20.57
2018-11-26T19:10:44.187Z,20.43
2018-11-26T19:13:16.094Z,16.23
2018-11-26T19:15:46.087Z,16.13
2018-11-26T19:18:18.856Z,14.47
2018-11-26T19:20:47.313Z,19.00
2018-11-26T19:23:15.702Z,14.03
2018-11-26T19:25:44.590Z,17.17
2018-11-26T19:28:13.010Z,14.40
2018-11-26T19:30:41.429Z,16.47
2018-11-26T19:33:10.470Z,11.97
2018-11-26T19:35:38.914Z,14.73
2018-11-26T19:38:07.961Z,16.60
2018-11-26T19:40:37.638Z,16.77
2018-11-26T19:43:06.565Z,16.20
2018-11-26T19:45:35.069Z,17.37
2018-11-26T19:48:03.499Z,14.03
2018-11-26T19:50:31.964Z,18.60
2018-11-26T19:53:00.369Z,19.07
2018-11-26T19:55:28.839Z,15.63
2018-11-26T19:57:58.257Z,17.90
2018-11-26T20:00:28.961Z,14.97
2018-11-26T20:03:10.510Z,17.70
2018-11-26T20:05:45.918Z,16.07
2018-11-26T20:08:14.336Z,16.87
2018-11-26T20:10:42.734Z,14.17
2018-11-26T20:13:11.167Z,13.83
2018-11-26T20:15:39.558Z,14.50
2018-11-26T20:18:08.006Z,15.20
2018-11-26T20:20:36.386Z,14.57
2018-11-26T20:23:04.802Z,16.37
2018-11-26T20:25:33.206Z,17.57
2018-11-26T20:28:01.610Z,17.27
2018-11-26T20:30:30.049Z,18.07
2018-11-26T20:32:58.458Z,17.30
2018-11-26T20:35:26.902Z,17.03
2018-11-26T20:37:55.318Z,21.97
2018-11-26T20:40:23.720Z,15.50
2018-11-26T20:42:53.457Z,16.97
2018-11-26T20:45:21.906Z,14.40
2018-11-26T20:47:51.145Z,14.93
2018-11-26T20:50:22.897Z,17.30
2018-11-26T20:52:51.301Z,20.13
2018-11-26T20:55:21.606Z,19.13
2018-11-26T20:57:51.017Z,18.77
2018-11-26T21:00:21.745Z,19.17
2018-11-26T21:02:52.405Z,21.70
2018-11-26T21:05:20.826Z,19.77
2018-11-26T21:07:49.245Z,21.83
2018-11-26T21:10:17.771Z,17.80
2018-11-26T21:12:46.229Z,23.67
2018-11-26T21:15:17.835Z,15.20
2018-11-26T21:17:48.482Z,21.57
2018-11-26T21:20:50.209Z,18.00
2018-11-26T21:23:23.966Z,24.47
2018-11-26T21:25:52.630Z,18.37
2018-11-26T21:28:21.022Z,22.37
2018-11-26T21:30:52.035Z,19.63
2018-11-26T21:33:17.890Z,28.43
2018-11-26T21:35:46.301Z,20.50
2018-11-26T21:38:14.694Z,19.77
2018-11-26T21:40:43.118Z,25.03
2018-11-26T21:43:11.937Z,20.50
2018-11-26T21:45:58.949Z,19.20
2018-11-26T21:48:27.354Z,26.97
2018-11-26T21:50:55.769Z,24.93
2018-11-26T21:53:24.198Z,18.97
2018-11-26T21:55:52.713Z,20.27
2018-11-26T21:58:21.122Z,22.93
2018-11-26T22:00:50.764Z,30.63
2018-11-26T22:03:19.229Z,18.90
2018-11-26T22:05:47.642Z,21.67
2018-11-26T22:08:16.034Z,23.90
2018-11-26T22:10:44.774Z,27.63
2018-11-26T22:13:14.887Z,25.80
2018-11-26T22:15:43.302Z,26.83
2018-11-26T22:18:11.717Z,19.50
2018-11-26T22:20:40.158Z,26.57
2018-11-26T22:23:08.684Z,21.43
2018-11-26T22:25:37.242Z,23.50
2018-11-26T22:28:07.517Z,25.43
2018-11-26T22:30:36.749Z,26.33
2018-11-26T22:33:05.405Z,22.90
2018-11-26T22:35:33.817Z,21.17
2018-11-26T22:38:02.250Z,19.97
2018-11-26T22:40:30.682Z,23.07
2018-11-26T22:42:59.102Z,24.07
2018-11-26T22:45:30.558Z,21.07
2018-11-26T22:48:07.982Z,25.83
2018-11-26T22:50:37.597Z,32.57
2018-11-26T22:53:07.231Z,23.33
2018-11-26T22:55:35.893Z,21.57
2018-11-26T22:58:04.367Z,21.93
2018-11-26T23:00:42.746Z,28.90
2018-11-26T23:03:12.803Z,25.77
2018-11-26T23:05:41.209Z,24.40
2018-11-26T23:08:09.628Z,19.70
2018-11-26T23:10:38.052Z,21.33
2018-11-26T23:13:07.498Z,19.80
2018-11-26T23:15:35.902Z,23.93
2018-11-26T23:18:04.359Z,21.67
2018-11-26T23:20:32.778Z,21.63
2018-11-26T23:23:01.185Z,24.47
2018-11-26T23:25:29.581Z,21.60
2018-11-26T23:27:58.001Z,19.07
2018-11-26T23:30:27.734Z,21.33
2018-11-26T23:33:02.245Z,25.47
2018-11-26T23:35:30.645Z,21.10
2018-11-26T23:37:59.094Z,26.00
2018-11-26T23:40:27.494Z,26.13
2018-11-26T23:42:55.910Z,22.13
2018-11-26T23:45:26.316Z,22.57
2018-11-26T23:47:54.729Z,17.93
2018-11-26T23:50:23.129Z,27.33
2018-11-26T23:52:51.558Z,22.53
2018-11-26T23:55:20.819Z,24.80
2018-11-26T23:57:49.271Z,19.20
